x

St Catherines Pt. (03866) Weather Station

6:00am - Thu 25th Dec 2014 All times are GMT.

  • Wind
    14mph
  • 空気 Temp 46°f
  • Sea Pressure 1027mb
  • St Catherines Pt.
  • St Catherines Pt.

More Historic Weather Station data

Upgrade to MSW Pro to gain access to the past 30 days of data for over 8000 Wavebouys and Weather Stations around the globe.

Join Pro

Comparision Forecast

View Surf forecast
   
Thu 12/25 6:00am 14
mph
1027mb 46f
5:00am 14
mph
1027mb 47f
4:00am 17
mph
1026mb 47f
3:00am 14
mph
1026mb 46f
2:00am 16
mph
1026mb 47f
1:00am 15
mph
1026mb 47f
12:00am 18
mph
1026mb 47f
Wed 12/24 11:00pm 18
mph
1025mb 46f
10:00pm 17
mph
1025mb 46f
9:00pm 18
mph
1024mb 47f
8:00pm 21 29 mph 1024mb 47f
7:00pm 19
mph
1023mb 47f
6:00pm 16
mph
1023mb 47f
5:00pm 18
mph
1022mb 47f
4:00pm 13
mph
1021mb 47f
3:00pm 11
mph
1021mb 47f
2:00pm 16 29 mph 1020mb 48f
1:00pm 18 29 mph 1019mb 48f
12:00pm 16
mph
1019mb 48f
11:00am 15
mph
1018mb 48f
10:00am 14
mph
1017mb 48f
9:00am 15 32 mph 1016mb 50f
8:00am 26 34 mph 1015mb 52f
7:00am 28 38 mph 1015mb 52f
6:00am 31 39 mph 1014mb 52f
5:00am 32 43 mph 1015mb 52f
4:00am 31 43 mph 1015mb 52f
3:00am 30 43 mph 1015mb 52f
2:00am 36 45 mph 1015mb 53f
1:00am 28 39 mph 1016mb 53f
12:00am 32 40 mph 1016mb 53f
Tue 12/23 11:00pm 31 44 mph 1016mb 53f
10:00pm 26 38 mph 1017mb 52f
9:00pm 28 37 mph 1017mb 52f
8:00pm 28 34 mph 1016mb 52f
7:00pm 26 32 mph 1017mb 52f
6:00pm 24 34 mph 1017mb 52f
5:00pm 22 37 mph 1018mb 51f
4:00pm 30 41 mph 1018mb 51f
3:00pm 25 40 mph 1018mb 52f
2:00pm 26 36 mph 1018mb 52f
1:00pm 22 29 mph 1019mb 53f
12:00pm 24 34 mph 1020mb 53f
11:00am 25 33 mph 1020mb 53f
10:00am 24 32 mph 1020mb 52f
9:00am 28 37 mph 1020mb 52f
8:00am 29 37 mph 1020mb 52f
7:00am 26 33 mph 1020mb 52f
6:00am 25 33 mph 1020mb 53f
5:00am 23 30 mph 1020mb 52f
4:00am 24 34 mph 1020mb 52f
3:00am 28 36 mph 1020mb 52f
2:00am 26 36 mph 1021mb 52f
1:00am 25 37 mph 1021mb 52f
12:00am 28 36 mph 1021mb 53f
Mon 12/22 11:00pm 28 36 mph 1021mb 53f
10:00pm 29 39 mph 1021mb 53f
9:00pm 31 38 mph 1021mb 53f
8:00pm 29 38 mph 1021mb 53f
7:00pm 28 39 mph 1021mb 53f
6:00pm 33 45 mph 1020mb 53f
5:00pm 33 45 mph 1020mb 53f
4:00pm 30 37 mph 1020mb 53f
3:00pm 28 41 mph 1021mb 53f
2:00pm 31 41 mph 1020mb 53f
1:00pm 31 40 mph 1021mb 53f
12:00pm 31 40 mph 1021mb 53f
11:00am 29 40 mph 1022mb 53f
10:00am 32 43 mph 1022mb 53f
9:00am 31 43 mph 1022mb 53f
8:00am 30 45 mph 1021mb 53f
7:00am 29 37 mph 1021mb 53f
6:00am 28 36 mph 1021mb 53f
5:00am 29 38 mph 1022mb 53f
4:00am 26 39 mph 1022mb 53f
3:00am 30 44 mph 1022mb 53f
2:00am 32 44 mph 1023mb 53f
1:00am 32 43 mph 1023mb 53f
12:00am 24 40 mph 1024mb 53f
Sun 12/21 11:00pm 28 43 mph 1025mb 52f
10:00pm 34 45 mph 1024mb 52f
9:00pm 33 43 mph 1025mb 52f
8:00pm 31 40 mph 1026mb 52f
7:00pm 31 40 mph 1026mb 52f
6:00pm 29 40 mph 1026mb 51f
5:00pm 30 40 mph 1026mb 51f
4:00pm 24 34 mph 1027mb 51f
3:00pm 28 38 mph 1027mb 51f
2:00pm 26 39 mph 1028mb 51f
1:00pm 28 38 mph 1029mb 51f
12:00pm 26 37 mph 1029mb 50f
11:00am 24 38 mph 1029mb 49f
10:00am 29 36 mph 1029mb 48f
9:00am 18 31 mph 1029mb 48f
8:00am 22 34 mph 1030mb 49f